New Hyde Park, New York
Current Conditions -  °F | °C
As of 3:51 PM on Wednesday 17 Dec 2014 (Local Time) from KJFK Reporting Station
Overcast Overcast  
Wind Chill: 52°   Ceiling: 4100
Heat Index: 52°   Visibility: 10mi
Dew Point: 35°   Wind: 15mph
Humidity: 53%   Direction: 270°W
Pressure: 29.84"   Gusts: 24mph
Location:  40.73°N, 73.68°W
Report Text: KJFK 172051Z 27013G21KT 10SM BKN041 OVC049 11/02 A2984 RMK AO2 SLP103 VIRGA N T01110017 53009
Loading
Personal Weather Stations






























Interactive Weather Map New forecast layout! Learn more

10-Day Weather Forecast

Advertisements
Track Severe Weather on mobile